createdAt,value
2018-01-01T00:01:24.630Z,1.74
2018-01-01T00:03:51.328Z,1.72
2018-01-01T00:06:18.728Z,1.61
2018-01-01T00:08:45.382Z,1.76
2018-01-01T00:11:12.036Z,1.83
2018-01-01T00:13:38.697Z,1.89
2018-01-01T00:16:05.483Z,1.88
2018-01-01T00:18:32.950Z,2.01
2018-01-01T00:20:59.602Z,2.16
2018-01-01T00:23:26.349Z,2.31
2018-01-01T00:25:53.027Z,2.37
2018-01-01T00:28:19.720Z,2.29
2018-01-01T00:30:46.403Z,2.44
2018-01-01T00:33:13.063Z,2.53
2018-01-01T00:35:39.722Z,2.26
2018-01-01T00:38:06.459Z,2.30
2018-01-01T00:40:33.872Z,2.47
2018-01-01T00:43:00.605Z,2.45
2018-01-01T00:45:27.292Z,2.38
2018-01-01T00:47:53.934Z,2.49
2018-01-01T00:50:20.965Z,2.47
2018-01-01T00:52:48.592Z,2.41
2018-01-01T00:55:15.279Z,2.33
2018-01-01T00:57:41.940Z,2.38
2018-01-01T01:00:08.640Z,2.42
2018-01-01T01:02:35.445Z,2.49
2018-01-01T01:05:03.071Z,2.57
2018-01-01T01:07:29.743Z,2.64
2018-01-01T01:09:58.107Z,2.70
2018-01-01T01:12:24.769Z,2.52
2018-01-01T01:14:52.192Z,2.47
2018-01-01T01:17:18.852Z,2.38
2018-01-01T01:19:45.526Z,2.41
2018-01-01T01:22:12.949Z,2.40
2018-01-01T01:24:39.592Z,2.32
2018-01-01T01:27:06.274Z,2.37
2018-01-01T01:29:33.698Z,2.08
2018-01-01T01:32:00.355Z,2.22
2018-01-01T01:34:27.088Z,2.33
2018-01-01T01:36:53.822Z,2.26
2018-01-01T01:39:20.453Z,2.30
2018-01-01T01:41:47.109Z,2.20
2018-01-01T01:44:13.792Z,2.04
2018-01-01T01:46:41.205Z,2.02
2018-01-01T01:49:07.945Z,2.30
2018-01-01T01:51:34.650Z,2.39
2018-01-01T01:54:01.307Z,2.58
2018-01-01T01:56:27.957Z,2.61
2018-01-01T01:58:54.634Z,2.57
2018-01-01T02:01:21.304Z,2.32
2018-01-01T02:03:48.776Z,2.48
2018-01-01T02:06:15.450Z,2.22
2018-01-01T02:08:42.097Z,2.36
2018-01-01T02:11:08.755Z,2.03
2018-01-01T02:13:35.430Z,2.22
2018-01-01T02:16:02.855Z,2.46
2018-01-01T02:18:29.518Z,2.26
2018-01-01T02:20:56.202Z,2.39
2018-01-01T02:23:22.860Z,2.62
2018-01-01T02:25:49.530Z,2.93
2018-01-01T02:28:16.247Z,3.20
2018-01-01T02:30:42.919Z,3.37
2018-01-01T02:33:09.590Z,3.49
2018-01-01T02:35:37.013Z,3.65
2018-01-01T02:38:03.673Z,3.75
2018-01-01T02:40:30.348Z,3.83
2018-01-01T02:42:57.005Z,4.06
2018-01-01T02:45:23.673Z,4.28
2018-01-01T02:47:50.339Z,4.31
2018-01-01T02:50:17.030Z,4.17
2018-01-01T02:52:43.722Z,3.98
2018-01-01T02:55:10.385Z,3.98
2018-01-01T02:57:37.835Z,4.04
2018-01-01T03:00:04.526Z,3.76
2018-01-01T03:02:31.185Z,3.70
2018-01-01T03:04:57.880Z,3.76
2018-01-01T03:07:24.545Z,3.82
2018-01-01T03:09:51.203Z,3.74
2018-01-01T03:12:17.879Z,3.62
2018-01-01T03:14:44.534Z,3.63
2018-01-01T03:17:11.243Z,3.63
2018-01-01T03:19:37.946Z,3.56
2018-01-01T03:22:05.367Z,3.37
2018-01-01T03:24:32.039Z,3.36
2018-01-01T03:26:59.468Z,3.35
2018-01-01T03:29:26.129Z,3.26
2018-01-01T03:31:52.802Z,2.90
2018-01-01T03:34:19.485Z,2.84
2018-01-01T03:36:46.130Z,2.89
2018-01-01T03:39:12.828Z,2.93
2018-01-01T03:41:39.529Z,2.87
2018-01-01T03:44:06.216Z,2.90
2018-01-01T03:46:32.892Z,3.15
2018-01-01T03:48:59.553Z,3.09
2018-01-01T03:51:26.217Z,2.77
2018-01-01T03:53:53.608Z,2.41
2018-01-01T03:56:20.309Z,2.67
2018-01-01T03:58:46.972Z,2.76
2018-01-01T04:01:14.382Z,2.59
2018-01-01T04:03:41.067Z,2.69
2018-01-01T04:06:08.483Z,2.55
2018-01-01T04:08:35.141Z,2.61
2018-01-01T04:11:01.847Z,2.73
2018-01-01T04:13:28.541Z,2.89
2018-01-01T04:15:55.198Z,2.96
2018-01-01T04:18:21.860Z,3.14
2018-01-01T04:20:49.260Z,3.34
2018-01-01T04:23:15.949Z,3.38
2018-01-01T04:25:43.369Z,3.44
2018-01-01T04:28:10.076Z,3.52
2018-01-01T04:30:36.728Z,3.65
2018-01-01T04:33:03.383Z,3.71
2018-01-01T04:35:30.091Z,3.75
2018-01-01T04:37:57.552Z,3.79
2018-01-01T04:40:24.951Z,3.88
2018-01-01T04:42:52.375Z,3.91
2018-01-01T04:45:19.032Z,3.96
2018-01-01T04:47:45.921Z,4.12
2018-01-01T04:50:12.583Z,4.11
2018-01-01T04:52:39.230Z,4.12
2018-01-01T04:55:06.622Z,4.24
2018-01-01T04:57:33.313Z,4.19
2018-01-01T04:59:59.971Z,4.22
2018-01-01T05:02:26.661Z,4.16
2018-01-01T05:04:53.345Z,4.19
2018-01-01T05:07:20.023Z,4.24
2018-01-01T05:09:46.677Z,4.24
2018-01-01T05:12:13.390Z,4.12
2018-01-01T05:14:40.845Z,4.14
2018-01-01T05:17:07.512Z,4.23
2018-01-01T05:19:34.930Z,4.23
2018-01-01T05:22:01.583Z,4.28
2018-01-01T05:24:29.210Z,4.34
2018-01-01T05:26:55.901Z,4.29
2018-01-01T05:29:23.336Z,4.45
2018-01-01T05:31:49.999Z,4.47
2018-01-01T05:34:16.678Z,4.48
2018-01-01T05:36:43.347Z,4.54
2018-01-01T05:39:10.028Z,4.52
2018-01-01T05:41:36.698Z,4.60
2018-01-01T05:44:03.427Z,4.59
2018-01-01T05:46:30.828Z,4.52
2018-01-01T05:48:57.481Z,4.39
2018-01-01T05:51:24.149Z,4.15
2018-01-01T05:53:50.804Z,3.88
2018-01-01T05:56:17.506Z,3.71
2018-01-01T05:58:44.212Z,3.67
2018-01-01T06:01:11.605Z,3.67
2018-01-01T06:03:38.254Z,3.55
2018-01-01T06:06:04.967Z,3.75
2018-01-01T06:08:32.374Z,3.62
2018-01-01T06:10:59.058Z,3.66
2018-01-01T06:13:26.481Z,3.77
2018-01-01T06:15:53.120Z,3.80
2018-01-01T06:18:19.798Z,3.91
2018-01-01T06:20:47.233Z,3.69
2018-01-01T06:23:14.805Z,3.72
2018-01-01T06:25:41.489Z,3.95
2018-01-01T06:28:08.156Z,3.76
2018-01-01T06:30:34.824Z,3.81
2018-01-01T06:33:01.531Z,3.98
2018-01-01T06:35:28.208Z,3.98
2018-01-01T06:37:54.832Z,4.08
2018-01-01T06:40:21.508Z,4.08
2018-01-01T06:42:48.153Z,4.01
2018-01-01T06:45:14.830Z,4.07
2018-01-01T06:47:41.578Z,4.25
2018-01-01T06:50:08.225Z,4.27
2018-01-01T06:52:34.903Z,4.18
2018-01-01T06:55:01.558Z,4.31
2018-01-01T06:57:28.234Z,4.44
2018-01-01T06:59:54.996Z,4.52
2018-01-01T07:02:21.654Z,4.66
2018-01-01T07:04:48.327Z,4.25
2018-01-01T07:07:14.991Z,4.18
2018-01-01T07:09:42.503Z,4.00
2018-01-01T07:12:09.178Z,4.10
2018-01-01T07:14:35.825Z,3.98
2018-01-01T07:17:03.302Z,3.92
2018-01-01T07:19:31.018Z,4.10
2018-01-01T07:21:57.682Z,4.27
2018-01-01T07:24:24.359Z,4.29
2018-01-01T07:26:52.033Z,4.48
2018-01-01T07:29:18.727Z,4.58
2018-01-01T07:31:45.389Z,4.64
2018-01-01T07:34:12.033Z,4.48
2018-01-01T07:36:38.737Z,4.56
2018-01-01T07:39:05.409Z,4.60
2018-01-01T07:41:32.094Z,4.67
2018-01-01T07:43:59.577Z,4.67
2018-01-01T07:46:26.239Z,4.62
2018-01-01T07:48:52.895Z,4.72
2018-01-01T07:51:19.612Z,4.30
2018-01-01T07:53:46.255Z,4.25
2018-01-01T07:56:12.906Z,4.52
2018-01-01T07:58:39.633Z,4.69
2018-01-01T08:01:06.286Z,4.78
2018-01-01T08:03:32.932Z,4.86
2018-01-01T08:05:59.630Z,4.95
2018-01-01T08:08:26.286Z,5.01
2018-01-01T08:10:52.954Z,5.14
2018-01-01T08:13:19.640Z,5.25
2018-01-01T08:15:47.053Z,5.33
2018-01-01T08:18:13.695Z,5.26
2018-01-01T08:20:40.378Z,5.44
2018-01-01T08:23:07.533Z,5.55
2018-01-01T08:25:35.964Z,5.59
2018-01-01T08:28:02.689Z,5.68
2018-01-01T08:30:29.367Z,5.87
2018-01-01T08:32:56.097Z,5.98
2018-01-01T08:35:22.803Z,5.81
2018-01-01T08:37:49.475Z,6.04
2018-01-01T08:40:16.886Z,5.99
2018-01-01T08:42:43.580Z,6.19
2018-01-01T08:45:10.247Z,6.31
2018-01-01T08:47:36.954Z,6.59
2018-01-01T08:50:03.612Z,6.64
2018-01-01T08:52:30.292Z,6.58
2018-01-01T08:54:58.574Z,6.62
2018-01-01T08:57:26.348Z,6.27
2018-01-01T08:59:54.626Z,6.30
2018-01-01T09:02:21.331Z,5.97
2018-01-01T09:04:47.982Z,6.10
2018-01-01T09:07:14.656Z,6.24
2018-01-01T09:09:41.417Z,6.15
2018-01-01T09:12:08.076Z,6.26
2018-01-01T09:20:18.445Z,6.42
2018-01-01T09:22:46.233Z,6.46
2018-01-01T09:25:13.690Z,6.56
2018-01-01T09:27:40.396Z,6.60
2018-01-01T09:30:07.083Z,6.72
2018-01-01T09:32:34.497Z,6.50
2018-01-01T09:35:01.197Z,6.63
2018-01-01T09:37:28.604Z,6.72
2018-01-01T09:39:55.265Z,6.83
2018-01-01T09:42:21.963Z,6.66
2018-01-01T09:44:48.632Z,6.48
2018-01-01T09:47:15.399Z,6.63
2018-01-01T09:49:42.120Z,6.56
2018-01-01T09:52:08.781Z,6.48
2018-01-01T09:54:35.479Z,6.46
2018-01-01T09:57:02.136Z,6.57
2018-01-01T09:59:28.859Z,6.71
2018-01-01T10:01:55.658Z,6.76
2018-01-01T10:04:22.391Z,6.88
2018-01-01T10:06:49.050Z,6.67
2018-01-01T10:09:15.777Z,6.87
2018-01-01T10:11:42.480Z,6.78
2018-01-01T10:14:10.156Z,7.09
2018-01-01T10:16:36.852Z,7.27
2018-01-01T10:19:03.563Z,7.49
2018-01-01T10:21:30.225Z,7.69
2018-01-01T10:23:58.040Z,7.83
2018-01-01T10:26:24.784Z,7.88
2018-01-01T10:28:51.628Z,7.54
2018-01-01T10:31:19.076Z,7.38
2018-01-01T10:33:47.438Z,7.63
2018-01-01T10:36:14.087Z,7.30
2018-01-01T10:38:40.752Z,7.16
2018-01-01T10:41:07.458Z,7.18
2018-01-01T10:43:34.155Z,7.24
2018-01-01T10:46:00.939Z,7.38
2018-01-01T10:48:27.650Z,7.39
2018-01-01T10:50:54.340Z,7.46
2018-01-01T10:53:21.000Z,7.42
2018-01-01T10:55:47.717Z,7.55
2018-01-01T10:58:16.072Z,7.67
2018-01-01T11:00:42.769Z,7.73
2018-01-01T11:03:10.212Z,7.89
2018-01-01T11:05:36.861Z,7.99
2018-01-01T11:08:03.631Z,8.14
2018-01-01T11:10:31.066Z,8.23
2018-01-01T11:12:58.063Z,8.50
2018-01-01T11:15:24.730Z,8.62
2018-01-01T11:17:51.421Z,8.58
2018-01-01T11:20:18.848Z,8.68
2018-01-01T11:22:45.506Z,8.76
2018-01-01T11:25:12.232Z,8.80
2018-01-01T11:27:38.965Z,8.88
2018-01-01T11:30:05.629Z,9.08
2018-01-01T11:32:32.613Z,9.06
2018-01-01T11:34:59.382Z,9.13
2018-01-01T11:37:26.270Z,9.02
2018-01-01T11:39:52.986Z,9.03
2018-01-01T11:42:19.670Z,9.01
2018-01-01T11:44:46.763Z,9.10
2018-01-01T11:47:13.482Z,8.83
2018-01-01T11:49:40.968Z,8.74
2018-01-01T11:52:09.652Z,8.88
2018-01-01T11:54:36.986Z,8.86
2018-01-01T11:57:04.409Z,8.96
2018-01-01T11:59:31.093Z,8.94
2018-01-01T12:01:58.557Z,8.91
2018-01-01T12:04:26.010Z,8.96
2018-01-01T12:06:53.434Z,9.08
2018-01-01T12:09:20.175Z,9.11
2018-01-01T12:11:46.857Z,9.15
2018-01-01T12:14:13.529Z,9.18
2018-01-01T12:16:40.268Z,9.25
2018-01-01T12:19:07.017Z,9.40
2018-01-01T12:21:33.750Z,9.34
2018-01-01T12:24:01.354Z,9.43
2018-01-01T12:26:28.027Z,9.58
2018-01-01T12:28:55.122Z,9.70
2018-01-01T12:31:21.847Z,9.80
2018-01-01T12:33:49.337Z,9.93
2018-01-01T12:36:16.231Z,9.75
2018-01-01T12:38:43.063Z,9.91
2018-01-01T12:41:09.817Z,10.05
2018-01-01T12:43:36.545Z,10.09
2018-01-01T12:46:03.364Z,10.24
2018-01-01T12:48:30.097Z,10.05
2018-01-01T12:50:56.805Z,9.65
2018-01-01T12:53:23.595Z,9.57
2018-01-01T12:55:50.256Z,9.16
2018-01-01T12:58:16.924Z,9.32
2018-01-01T13:00:43.653Z,9.25
2018-01-01T13:03:10.302Z,9.09
2018-01-01T13:05:37.007Z,8.87
2018-01-01T13:08:03.750Z,8.51
2018-01-01T13:10:30.470Z,8.69
2018-01-01T13:12:57.870Z,8.85
2018-01-01T13:15:24.632Z,8.88
2018-01-01T13:17:52.032Z,8.57
2018-01-01T13:20:18.725Z,8.63
2018-01-01T13:25:23.250Z,8.33
2018-01-01T13:27:50.002Z,8.29
2018-01-01T13:30:16.680Z,8.28
2018-01-01T13:32:43.349Z,8.32
2018-01-01T13:35:10.813Z,8.30
2018-01-01T13:37:38.269Z,8.30
2018-01-01T13:40:04.950Z,8.51
2018-01-01T13:42:31.682Z,8.64
2018-01-01T13:44:58.382Z,8.48
2018-01-01T13:47:25.063Z,8.42
2018-01-01T13:49:52.501Z,8.33
2018-01-01T13:52:19.646Z,8.41
2018-01-01T13:57:20.493Z,8.62
2018-01-01T13:59:47.401Z,8.57
2018-01-01T14:02:14.193Z,8.56
2018-01-01T14:04:41.167Z,8.39
2018-01-01T14:07:07.882Z,8.21
2018-01-01T14:09:34.559Z,8.08
2018-01-01T14:12:02.068Z,8.26
2018-01-01T14:14:31.180Z,8.34
2018-01-01T14:16:59.494Z,7.96
2018-01-01T14:19:37.540Z,7.87
2018-01-01T14:22:04.282Z,7.75
2018-01-01T14:24:30.995Z,7.93
2018-01-01T14:26:57.815Z,8.04
2018-01-01T14:29:24.640Z,7.89
2018-01-01T14:31:51.375Z,7.86
2018-01-01T14:34:18.952Z,7.84
2018-01-01T14:36:45.781Z,7.87
2018-01-01T14:39:12.614Z,8.03
2018-01-01T14:41:39.396Z,8.10
2018-01-01T14:44:06.161Z,7.89
2018-01-01T14:46:32.854Z,7.84
2018-01-01T14:48:59.589Z,7.55
2018-01-01T14:51:26.290Z,7.29
2018-01-01T14:53:53.004Z,7.26
2018-01-01T14:56:19.781Z,7.20
2018-01-01T14:58:46.501Z,7.12
2018-01-01T15:01:13.186Z,7.04
2018-01-01T15:03:41.125Z,6.84
2018-01-01T15:06:07.893Z,6.83
2018-01-01T15:08:34.615Z,6.94
2018-01-01T15:11:01.352Z,7.01
2018-01-01T15:13:28.089Z,6.87
2018-01-01T15:15:54.802Z,6.89
2018-01-01T15:18:21.906Z,6.75
2018-01-01T15:20:49.092Z,6.83
2018-01-01T15:23:15.837Z,6.80
2018-01-01T15:25:42.628Z,6.73
2018-01-01T15:28:10.131Z,6.62
2018-01-01T15:30:36.870Z,6.70
2018-01-01T15:33:03.572Z,6.61
2018-01-01T15:35:30.327Z,6.77
2018-01-01T15:37:57.067Z,6.72
2018-01-01T15:40:24.602Z,6.65
2018-01-01T15:42:51.308Z,6.54
2018-01-01T15:45:17.984Z,6.55
2018-01-01T15:47:44.717Z,6.76
2018-01-01T15:50:11.411Z,6.66
2018-01-01T15:52:38.082Z,6.58
2018-01-01T15:55:05.575Z,6.62
2018-01-01T15:57:32.293Z,6.63
2018-01-01T15:59:59.682Z,6.50
2018-01-01T16:02:26.438Z,6.16
2018-01-01T16:04:53.123Z,6.35
2018-01-01T16:07:19.796Z,6.39
2018-01-01T16:09:46.579Z,6.58
2018-01-01T16:12:13.239Z,6.66
2018-01-01T16:14:39.904Z,6.30
2018-01-01T16:17:06.637Z,6.48
2018-01-01T16:19:33.356Z,6.45
2018-01-01T16:22:00.020Z,6.21
2018-01-01T16:24:26.708Z,6.28
2018-01-01T16:26:53.382Z,6.40
2018-01-01T16:29:20.064Z,6.42
2018-01-01T16:31:46.778Z,6.57
2018-01-01T16:34:13.450Z,6.63
2018-01-01T16:36:40.168Z,6.28
2018-01-01T16:39:06.919Z,6.29
2018-01-01T16:41:33.595Z,6.31
2018-01-01T16:44:00.868Z,6.26
2018-01-01T16:46:27.550Z,6.43
2018-01-01T16:48:54.216Z,6.32
2018-01-01T16:51:20.895Z,6.36
2018-01-01T16:53:48.277Z,6.31
2018-01-01T16:56:14.947Z,6.72
2018-01-01T16:58:41.639Z,6.84
2018-01-01T17:01:08.963Z,6.79
2018-01-01T17:03:35.636Z,6.74
2018-01-01T17:06:02.394Z,6.72
2018-01-01T17:08:30.641Z,6.92
2018-01-01T17:10:57.305Z,6.70
2018-01-01T17:13:23.980Z,6.42
2018-01-01T17:15:52.441Z,6.43
2018-01-01T17:18:19.158Z,6.60
2018-01-01T17:20:48.712Z,6.69
2018-01-01T17:23:17.246Z,6.66
2018-01-01T17:25:46.549Z,6.63
2018-01-01T17:28:15.101Z,6.62
2018-01-01T17:30:43.529Z,6.79
2018-01-01T17:33:13.254Z,6.88
2018-01-01T17:35:41.775Z,6.89
2018-01-01T17:38:10.482Z,6.68
2018-01-01T17:40:38.331Z,6.80
2018-01-01T17:46:07.239Z,6.65
2018-01-01T17:48:33.990Z,6.51
2018-01-01T17:53:50.294Z,6.61
2018-01-01T17:56:17.859Z,6.66
2018-01-01T17:58:45.978Z,6.82
2018-01-01T18:01:12.958Z,6.88
2018-01-01T18:03:39.898Z,6.88
2018-01-01T18:06:07.017Z,6.80
2018-01-01T18:08:34.576Z,6.65
2018-01-01T18:11:03.060Z,6.64
2018-01-01T18:13:30.439Z,6.64
2018-01-01T18:15:58.946Z,6.58
2018-01-01T18:18:27.519Z,6.52
2018-01-01T18:20:56.164Z,6.18
2018-01-01T18:23:23.886Z,6.29
2018-01-01T18:25:50.541Z,6.44
2018-01-01T18:28:19.250Z,6.41
2018-01-01T18:30:47.332Z,6.44
2018-01-01T18:33:14.105Z,6.48
2018-01-01T18:35:43.353Z,6.61
2018-01-01T18:38:11.000Z,6.61
2018-01-01T18:40:37.700Z,6.52
2018-01-01T18:43:04.438Z,6.43
2018-01-01T18:45:31.131Z,6.31
2018-01-01T18:47:57.807Z,6.36
2018-01-01T18:50:25.233Z,6.22
2018-01-01T18:52:51.877Z,6.23
2018-01-01T18:55:19.511Z,6.16
2018-01-01T18:57:46.150Z,5.97
2018-01-01T19:00:12.877Z,5.90
2018-01-01T19:02:39.623Z,6.01
2018-01-01T19:05:06.270Z,5.98
2018-01-01T19:07:32.946Z,6.11
2018-01-01T19:09:59.723Z,6.25
2018-01-01T19:12:27.145Z,6.27
2018-01-01T19:14:53.804Z,6.29
2018-01-01T19:17:20.510Z,6.32
2018-01-01T19:19:47.249Z,6.19
2018-01-01T19:22:13.982Z,6.24
2018-01-01T19:24:40.681Z,6.38
2018-01-01T19:27:07.337Z,6.41
2018-01-01T19:29:33.978Z,5.97
2018-01-01T19:32:00.734Z,6.15
2018-01-01T19:34:27.375Z,6.31
2018-01-01T19:36:54.037Z,6.27
2018-01-01T19:39:21.643Z,6.35
2018-01-01T19:41:48.291Z,6.39
2018-01-01T19:44:15.062Z,6.32
2018-01-01T19:46:41.855Z,6.29
2018-01-01T19:49:08.501Z,6.18
2018-01-01T19:51:35.225Z,6.05
2018-01-01T19:54:02.692Z,6.13
2018-01-01T19:56:29.381Z,6.26
2018-01-01T19:58:56.022Z,6.26
2018-01-01T20:01:22.738Z,6.32
2018-01-01T20:03:49.423Z,6.32
2018-01-01T20:06:16.133Z,6.40
2018-01-01T20:08:42.815Z,6.43
2018-01-01T20:11:09.546Z,6.44
2018-01-01T20:13:36.231Z,6.48
2018-01-01T20:16:02.918Z,6.41
2018-01-01T20:18:29.625Z,6.51
2018-01-01T20:20:56.265Z,6.54
2018-01-01T20:23:22.980Z,6.51
2018-01-01T20:25:49.660Z,6.56
2018-01-01T20:28:16.335Z,6.52
2018-01-01T20:30:43.018Z,6.31
2018-01-01T20:33:10.434Z,6.38
2018-01-01T20:35:37.123Z,6.41
2018-01-01T20:38:05.125Z,6.34
2018-01-01T20:40:31.821Z,6.29
2018-01-01T20:42:58.502Z,6.30
2018-01-01T20:45:25.194Z,6.18
2018-01-01T20:47:51.861Z,6.15
2018-01-01T20:50:19.701Z,6.11
2018-01-01T20:52:47.153Z,6.11
2018-01-01T20:55:14.752Z,6.11
2018-01-01T20:57:41.440Z,6.07
2018-01-01T21:00:08.103Z,6.04
2018-01-01T21:02:34.814Z,6.11
2018-01-01T21:05:01.519Z,6.08
2018-01-01T21:07:28.197Z,6.09
2018-01-01T21:09:54.890Z,6.04
2018-01-01T21:12:21.617Z,6.08
2018-01-01T21:14:48.285Z,6.12
2018-01-01T21:17:15.174Z,6.01
2018-01-01T21:19:42.644Z,6.13
2018-01-01T21:22:09.318Z,6.18
2018-01-01T21:24:36.088Z,6.21
2018-01-01T21:27:02.787Z,6.20
2018-01-01T21:29:29.472Z,6.21
2018-01-01T21:31:56.246Z,6.23
2018-01-01T21:34:23.710Z,6.15
2018-01-01T21:36:50.379Z,6.16
2018-01-01T21:39:17.110Z,6.09
2018-01-01T21:41:43.767Z,6.01
2018-01-01T21:44:10.441Z,6.04
2018-01-01T21:46:37.183Z,6.09
2018-01-01T21:49:03.873Z,6.01
2018-01-01T21:51:30.527Z,6.00
2018-01-01T21:53:57.217Z,6.03
2018-01-01T21:56:23.914Z,6.06
2018-01-01T21:58:50.598Z,6.03
2018-01-01T22:01:17.285Z,6.01
2018-01-01T22:03:43.946Z,6.09
2018-01-01T22:06:10.728Z,6.01
2018-01-01T22:08:37.413Z,5.97
2018-01-01T22:11:04.909Z,5.90
2018-01-01T22:13:31.560Z,6.00
2018-01-01T22:15:58.255Z,6.04
2018-01-01T22:18:25.709Z,6.01
2018-01-01T22:20:53.129Z,6.01
2018-01-01T22:23:19.810Z,6.02
2018-01-01T22:25:47.239Z,5.99
2018-01-01T22:28:13.919Z,5.89
2018-01-01T22:30:41.461Z,5.95
2018-01-01T22:33:08.133Z,5.89
2018-01-01T22:35:35.597Z,5.74
2018-01-01T22:38:03.009Z,5.79
2018-01-01T22:40:29.697Z,5.81
2018-01-01T22:42:57.176Z,5.69
2018-01-01T22:45:23.953Z,5.69
2018-01-01T22:47:50.602Z,5.72
2018-01-01T22:50:18.070Z,5.69
2018-01-01T22:52:45.548Z,5.59
2018-01-01T22:55:12.185Z,5.57
2018-01-01T22:57:38.907Z,5.31
2018-01-01T23:00:05.773Z,5.45
2018-01-01T23:02:32.440Z,5.53
2018-01-01T23:04:59.843Z,5.51
2018-01-01T23:07:26.521Z,5.41
2018-01-01T23:09:53.172Z,5.40
2018-01-01T23:12:20.565Z,5.33
2018-01-01T23:14:47.237Z,5.36
2018-01-01T23:17:13.904Z,5.25
2018-01-01T23:19:40.633Z,5.15
2018-01-01T23:22:07.337Z,5.03
2018-01-01T23:24:33.997Z,5.01
2018-01-01T23:27:00.661Z,5.20
2018-01-01T23:29:27.328Z,5.14
2018-01-01T23:31:54.148Z,5.16
2018-01-01T23:34:20.821Z,4.97
2018-01-01T23:36:48.258Z,5.02
2018-01-01T23:39:14.955Z,4.94
2018-01-01T23:41:41.874Z,4.97
2018-01-01T23:44:09.259Z,4.99
2018-01-01T23:46:35.918Z,4.87
2018-01-01T23:49:03.409Z,5.00
2018-01-01T23:51:30.102Z,4.89
2018-01-01T23:53:57.423Z,4.91
2018-01-01T23:56:24.157Z,5.04
2018-01-01T23:58:50.825Z,5.09
